createdAt,value
2017-06-04T00:02:00.363Z,100265
2017-06-04T00:04:28.947Z,100265
2017-06-04T00:06:57.149Z,100255
2017-06-04T00:09:25.391Z,100255
2017-06-04T00:11:53.616Z,100269
2017-06-04T00:14:21.813Z,100279
2017-06-04T00:16:50.431Z,100262
2017-06-04T00:19:19.392Z,100260
2017-06-04T00:21:47.575Z,100255
2017-06-04T00:24:15.785Z,100255
2017-06-04T00:26:44.772Z,100257
2017-06-04T00:29:13.471Z,100249
2017-06-04T00:31:41.650Z,100249
2017-06-04T00:34:09.819Z,100252
2017-06-04T00:36:38.005Z,100253
2017-06-04T00:39:06.199Z,100247
2017-06-04T00:41:34.705Z,100246
2017-06-04T00:44:02.878Z,100253
2017-06-04T00:46:31.067Z,100248
2017-06-04T00:48:59.283Z,100255
2017-06-04T00:51:27.462Z,100252
2017-06-04T00:53:56.081Z,100251
2017-06-04T00:56:24.274Z,100254
2017-06-04T00:58:53.226Z,100251
2017-06-04T01:01:21.443Z,100256
2017-06-04T01:03:50.413Z,100255
2017-06-04T01:06:18.987Z,100252
2017-06-04T01:08:47.164Z,100254
2017-06-04T01:11:15.359Z,100259
2017-06-04T01:13:44.347Z,100261
2017-06-04T01:16:13.316Z,100260
2017-06-04T01:18:41.902Z,100260
2017-06-04T01:21:10.144Z,100268
2017-06-04T01:23:38.313Z,100265
2017-06-04T01:26:06.530Z,100261
2017-06-04T01:28:34.799Z,100256
2017-06-04T01:31:03.485Z,100240
2017-06-04T01:33:31.667Z,100233
2017-06-04T01:35:59.882Z,100230
2017-06-04T01:38:28.112Z,100220
2017-06-04T01:40:56.299Z,100224
2017-06-04T01:43:24.855Z,100225
2017-06-04T01:45:53.030Z,100234
2017-06-04T01:48:21.221Z,100244
2017-06-04T01:50:49.427Z,100248
2017-06-04T01:53:17.651Z,100249
2017-06-04T01:55:46.240Z,100243
2017-06-04T01:58:14.428Z,100256
2017-06-04T02:00:42.623Z,100247
2017-06-04T02:03:10.846Z,100245
2017-06-04T02:05:39.034Z,100235
2017-06-04T02:08:07.636Z,100234
2017-06-04T02:10:36.585Z,100228
2017-06-04T02:13:04.780Z,100232
2017-06-04T02:15:33.073Z,100225
2017-06-04T02:18:01.254Z,100230
2017-06-04T02:20:30.641Z,100239
2017-06-04T02:22:58.922Z,100228
2017-06-04T02:25:27.135Z,100233
2017-06-04T02:27:55.352Z,100239
2017-06-04T02:30:23.549Z,100244
2017-06-04T02:32:52.121Z,100241
2017-06-04T02:35:20.316Z,100252
2017-06-04T02:37:48.504Z,100244
2017-06-04T02:40:16.726Z,100242
2017-06-04T02:42:44.933Z,100252
2017-06-04T02:45:14.306Z,100254
2017-06-04T02:47:42.532Z,100256
2017-06-04T02:50:10.727Z,100257
2017-06-04T02:52:38.935Z,100255
2017-06-04T02:55:07.303Z,100255
2017-06-04T02:57:35.521Z,100260
2017-06-04T03:00:03.806Z,100264
2017-06-04T03:02:32.389Z,100265
2017-06-04T03:05:00.636Z,100255
2017-06-04T03:07:28.834Z,100262
2017-06-04T03:09:57.052Z,100266
2017-06-04T03:12:25.248Z,100266
2017-06-04T03:14:53.799Z,100259
2017-06-04T03:17:22.001Z,100260
2017-06-04T03:19:50.181Z,100257
2017-06-04T03:22:18.375Z,100258
2017-06-04T03:24:46.628Z,100248
2017-06-04T03:27:15.999Z,100254
2017-06-04T03:29:44.197Z,100251
2017-06-04T03:32:13.044Z,100264
2017-06-04T03:34:42.063Z,100266
2017-06-04T03:37:10.247Z,100265
2017-06-04T03:39:38.815Z,100254
2017-06-04T03:42:07.095Z,100261
2017-06-04T03:44:35.316Z,100266
2017-06-04T03:47:03.565Z,100259
2017-06-04T03:49:32.927Z,100264
2017-06-04T03:52:01.517Z,100261
2017-06-04T03:54:29.755Z,100255
2017-06-04T03:56:57.935Z,100259
2017-06-04T03:59:26.137Z,100261
2017-06-04T04:01:54.362Z,100257
2017-06-04T04:04:22.902Z,100247
2017-06-04T04:06:51.095Z,100255
2017-06-04T04:09:20.067Z,100257
2017-06-04T04:11:48.291Z,100256
2017-06-04T04:14:16.467Z,100264
2017-06-04T04:16:45.111Z,100263
2017-06-04T04:19:13.283Z,100267
2017-06-04T04:21:41.452Z,100256
2017-06-04T04:24:09.684Z,100266
2017-06-04T04:26:37.876Z,100266
2017-06-04T04:29:06.466Z,100263
2017-06-04T04:31:34.679Z,100258
2017-06-04T04:34:03.666Z,100266
2017-06-04T04:36:32.652Z,100267
2017-06-04T04:39:00.857Z,100271
2017-06-04T04:41:29.458Z,100271
2017-06-04T04:43:57.672Z,100271
2017-06-04T04:46:25.859Z,100270
2017-06-04T04:48:54.841Z,100274
2017-06-04T04:51:23.027Z,100273
2017-06-04T04:53:51.579Z,100270
2017-06-04T04:56:19.782Z,100276
2017-06-04T04:58:48.058Z,100262
2017-06-04T05:01:16.323Z,100270
2017-06-04T05:03:44.534Z,100266
2017-06-04T05:06:13.258Z,100266
2017-06-04T05:08:41.467Z,100274
2017-06-04T05:11:09.684Z,100277
2017-06-04T05:13:37.932Z,100272
2017-06-04T05:16:06.082Z,100274
2017-06-04T05:18:35.548Z,100278
2017-06-04T05:21:03.737Z,100281
2017-06-04T05:23:31.928Z,100286
2017-06-04T05:26:07.382Z,100285
2017-06-04T05:28:41.666Z,100283
2017-06-04T05:31:09.867Z,100278
2017-06-04T05:33:38.819Z,100285
2017-06-04T05:36:07.383Z,100286
2017-06-04T05:38:35.572Z,100295
2017-06-04T05:41:03.744Z,100292
2017-06-04T05:43:31.934Z,100291
2017-06-04T05:46:00.115Z,100301
2017-06-04T05:48:28.310Z,100296
2017-06-04T05:50:56.707Z,100295
2017-06-04T05:53:24.895Z,100297
2017-06-04T05:55:53.519Z,100296
2017-06-04T05:58:21.753Z,100294
2017-06-04T06:00:49.981Z,100304
2017-06-04T06:03:18.199Z,100305
2017-06-04T06:05:46.463Z,100300
2017-06-04T06:08:15.093Z,100300
2017-06-04T06:10:43.278Z,100304
2017-06-04T06:13:11.538Z,100301
2017-06-04T06:15:39.747Z,100316
2017-06-04T06:18:07.913Z,100316
2017-06-04T06:20:36.481Z,100317
2017-06-04T06:23:04.707Z,100332
2017-06-04T06:25:32.930Z,100322
2017-06-04T06:28:01.130Z,100330
2017-06-04T06:30:30.088Z,100323
2017-06-04T06:32:58.638Z,100326
2017-06-04T06:35:26.849Z,100332
2017-06-04T06:37:55.037Z,100335
2017-06-04T06:40:24.042Z,100333
2017-06-04T06:42:52.294Z,100341
2017-06-04T06:45:20.882Z,100333
2017-06-04T06:47:49.230Z,100325
2017-06-04T06:50:17.428Z,100332
2017-06-04T06:52:46.466Z,100333
2017-06-04T06:55:14.639Z,100342
2017-06-04T06:57:43.480Z,100340
2017-06-04T07:00:11.665Z,100336
2017-06-04T07:02:39.866Z,100348
2017-06-04T07:05:08.094Z,100356
2017-06-04T07:07:36.295Z,100345
2017-06-04T07:10:05.045Z,100361
2017-06-04T07:12:33.258Z,100361
2017-06-04T07:15:01.569Z,100354
2017-06-04T07:17:29.800Z,100357
2017-06-04T07:19:58.024Z,100350
2017-06-04T07:22:26.646Z,100358
2017-06-04T07:24:54.851Z,100353
2017-06-04T07:27:23.071Z,100360
2017-06-04T07:29:51.747Z,100352
2017-06-04T07:32:19.937Z,100358
2017-06-04T07:34:48.720Z,100350
2017-06-04T07:37:16.912Z,100361
2017-06-04T07:39:45.882Z,100357
2017-06-04T07:42:14.103Z,100358
2017-06-04T07:44:42.325Z,100367
2017-06-04T07:47:10.923Z,100364
2017-06-04T07:49:39.147Z,100366
2017-06-04T07:52:07.371Z,100373
2017-06-04T07:54:35.576Z,100366
2017-06-04T07:57:03.802Z,100369
2017-06-04T07:59:32.373Z,100373
2017-06-04T08:02:00.568Z,100367
2017-06-04T08:04:28.867Z,100366
2017-06-04T08:06:57.127Z,100365
2017-06-04T08:09:25.306Z,100372
2017-06-04T08:11:53.971Z,100375
2017-06-04T08:14:22.207Z,100370
2017-06-04T08:16:50.377Z,100367
2017-06-04T08:19:18.593Z,100368
2017-06-04T08:21:46.824Z,100369
2017-06-04T08:24:15.371Z,100377
2017-06-04T08:26:43.572Z,100378
2017-06-04T08:29:11.779Z,100380
2017-06-04T08:31:40.024Z,100380
2017-06-04T08:34:08.224Z,100372
2017-06-04T08:36:36.905Z,100364
2017-06-04T08:39:05.114Z,100369
2017-06-04T08:41:33.350Z,100366
2017-06-04T08:44:01.590Z,100364
2017-06-04T08:46:29.786Z,100370
2017-06-04T08:48:58.346Z,100363
2017-06-04T08:51:26.538Z,100363
2017-06-04T08:53:54.752Z,100368
2017-06-04T08:56:22.975Z,100364
2017-06-04T08:58:51.155Z,100373
2017-06-04T09:01:19.904Z,100363
2017-06-04T09:03:48.159Z,100368
2017-06-04T09:06:16.411Z,100375
2017-06-04T09:08:45.037Z,100390
2017-06-04T09:11:13.256Z,100376
2017-06-04T09:13:41.471Z,100369
2017-06-04T09:16:09.678Z,100380
2017-06-04T09:18:38.638Z,100379
2017-06-04T09:21:07.222Z,100373
2017-06-04T09:23:36.211Z,100380
2017-06-04T09:26:04.467Z,100372
2017-06-04T09:28:32.681Z,100379
2017-06-04T09:31:00.891Z,100375
2017-06-04T09:33:29.463Z,100376
2017-06-04T09:35:57.664Z,100385
2017-06-04T09:38:25.870Z,100382
2017-06-04T09:40:54.106Z,100379
2017-06-04T09:43:22.333Z,100390
2017-06-04T09:45:50.916Z,100390
2017-06-04T09:48:19.129Z,100395
2017-06-04T09:50:47.435Z,100393
2017-06-04T09:53:15.656Z,100398
2017-06-04T09:55:43.883Z,100409
2017-06-04T09:58:12.442Z,100402
2017-06-04T10:00:40.616Z,100409
2017-06-04T10:03:08.806Z,100412
2017-06-04T10:05:37.011Z,100412
2017-06-04T10:08:05.228Z,100421
2017-06-04T10:10:33.824Z,100425
2017-06-04T10:13:02.030Z,100427
2017-06-04T10:15:30.256Z,100425
2017-06-04T10:17:58.459Z,100422
2017-06-04T10:20:26.707Z,100424
2017-06-04T10:22:55.346Z,100424
2017-06-04T10:25:23.538Z,100426
2017-06-04T10:27:51.767Z,100446
2017-06-04T10:30:19.975Z,100433
2017-06-04T10:32:48.951Z,100434
2017-06-04T10:35:17.589Z,100443
2017-06-04T10:37:45.806Z,100443
2017-06-04T10:40:14.022Z,100458
2017-06-04T10:42:42.295Z,100462
2017-06-04T10:45:10.507Z,100458
2017-06-04T10:47:39.096Z,100481
2017-06-04T10:50:07.303Z,100467
2017-06-04T10:52:36.273Z,100461
2017-06-04T10:55:04.536Z,100455
2017-06-04T10:57:32.753Z,100460
2017-06-04T11:00:02.268Z,100456
2017-06-04T11:02:30.477Z,100462
2017-06-04T11:04:58.695Z,100463
2017-06-04T11:07:27.813Z,100463
2017-06-04T11:09:56.010Z,100458
2017-06-04T11:12:24.667Z,100464
2017-06-04T11:14:52.866Z,100464
2017-06-04T11:17:21.109Z,100468
2017-06-04T11:19:49.357Z,100471
2017-06-04T11:22:17.562Z,100458
2017-06-04T11:24:47.047Z,100464
2017-06-04T11:27:15.257Z,100475
2017-06-04T11:29:43.459Z,100458
2017-06-04T11:32:11.751Z,100472
2017-06-04T11:34:39.972Z,100464
2017-06-04T11:37:08.540Z,100459
2017-06-04T11:39:37.505Z,100459
2017-06-04T11:42:05.713Z,100464
2017-06-04T11:44:34.019Z,100472
2017-06-04T11:47:02.302Z,100459
2017-06-04T11:49:30.956Z,100471
2017-06-04T11:51:59.222Z,100456
2017-06-04T11:54:28.214Z,100486
2017-06-04T11:56:57.207Z,100469
2017-06-04T11:59:25.477Z,100487
2017-06-04T12:01:54.043Z,100486
2017-06-04T12:04:22.222Z,100484
2017-06-04T12:06:51.185Z,100487
2017-06-04T12:09:19.411Z,100483
2017-06-04T12:11:47.630Z,100492
2017-06-04T12:14:16.235Z,100488
2017-06-04T12:16:44.465Z,100495
2017-06-04T12:19:12.650Z,100488
2017-06-04T12:21:40.848Z,100497
2017-06-04T12:24:09.145Z,100491
2017-06-04T12:26:38.129Z,100495
2017-06-04T12:29:07.192Z,100514
2017-06-04T12:31:35.472Z,100515
2017-06-04T12:34:03.711Z,100496
2017-06-04T12:36:32.006Z,100514
2017-06-04T12:39:00.607Z,100501
2017-06-04T12:41:28.831Z,100511
2017-06-04T12:43:56.990Z,100511
2017-06-04T12:46:25.180Z,100521
2017-06-04T12:48:53.353Z,100522
2017-06-04T12:51:21.980Z,100524
2017-06-04T12:53:50.253Z,100527
2017-06-04T12:56:18.481Z,100544
2017-06-04T12:58:46.679Z,100530
2017-06-04T13:01:14.872Z,100527
2017-06-04T13:03:43.419Z,100523
2017-06-04T13:06:11.626Z,100521
2017-06-04T13:08:39.838Z,100533
2017-06-04T13:11:08.835Z,100534
2017-06-04T13:13:37.042Z,100529
2017-06-04T13:16:05.670Z,100530
2017-06-04T13:18:34.194Z,100535
2017-06-04T13:21:02.408Z,100530
2017-06-04T13:23:30.629Z,100530
2017-06-04T13:25:58.889Z,100543
2017-06-04T13:28:27.621Z,100537
2017-06-04T13:30:55.795Z,100536
2017-06-04T13:33:23.971Z,100535
2017-06-04T13:35:52.271Z,100546
2017-06-04T13:38:20.482Z,100536
2017-06-04T13:40:49.442Z,100540
2017-06-04T13:43:17.676Z,100542
2017-06-04T13:45:45.858Z,100543
2017-06-04T13:48:14.061Z,100537
2017-06-04T13:50:42.280Z,100540
2017-06-04T13:53:11.031Z,100553
2017-06-04T13:55:39.202Z,100543
2017-06-04T13:58:07.407Z,100550
2017-06-04T14:00:35.571Z,100549
2017-06-04T14:03:04.541Z,100561
2017-06-04T14:05:33.105Z,100552
2017-06-04T14:08:01.314Z,100557
2017-06-04T14:10:30.293Z,100545
2017-06-04T14:12:58.505Z,100545
2017-06-04T14:15:26.713Z,100548
2017-06-04T14:17:56.122Z,100558
2017-06-04T14:20:24.335Z,100557
2017-06-04T14:22:53.514Z,100551
2017-06-04T14:25:21.703Z,100554
2017-06-04T14:27:50.670Z,100554
2017-06-04T14:30:19.347Z,100552
2017-06-04T14:32:47.548Z,100552
2017-06-04T14:35:16.530Z,100544
2017-06-04T14:37:44.747Z,100550
2017-06-04T14:40:12.928Z,100553
2017-06-04T14:42:41.556Z,100549
2017-06-04T14:45:09.731Z,100546
2017-06-04T14:47:37.934Z,100542
2017-06-04T14:50:06.137Z,100554
2017-06-04T14:52:34.317Z,100558
2017-06-04T14:55:03.024Z,100552
2017-06-04T14:57:31.233Z,100553
2017-06-04T14:59:59.451Z,100557
2017-06-04T15:02:27.646Z,100541
2017-06-04T15:04:55.823Z,100559
2017-06-04T15:07:24.341Z,100550
2017-06-04T15:09:52.531Z,100557
2017-06-04T15:12:20.706Z,100551
2017-06-04T15:14:48.929Z,100554
2017-06-04T15:17:17.126Z,100558
2017-06-04T15:19:45.778Z,100561
2017-06-04T15:22:13.951Z,100559
2017-06-04T15:24:42.150Z,100565
2017-06-04T15:27:11.133Z,100562
2017-06-04T15:29:39.324Z,100567
2017-06-04T15:32:07.971Z,100570
2017-06-04T15:34:36.163Z,100567
2017-06-04T15:37:05.116Z,100568
2017-06-04T15:39:33.998Z,100570
2017-06-04T15:42:02.189Z,100572
2017-06-04T15:44:30.381Z,100566
2017-06-04T15:46:58.576Z,100563
2017-06-04T15:49:27.555Z,100577
2017-06-04T15:51:56.977Z,100565
2017-06-04T15:54:25.189Z,100562
2017-06-04T15:56:53.389Z,100565
2017-06-04T15:59:21.583Z,100568
2017-06-04T16:01:49.877Z,100577
2017-06-04T16:04:18.428Z,100577
2017-06-04T16:06:47.461Z,100577
2017-06-04T16:09:15.751Z,100577
2017-06-04T16:11:44.024Z,100576
2017-06-04T16:14:12.217Z,100595
2017-06-04T16:16:40.801Z,100590
2017-06-04T16:19:09.032Z,100589
2017-06-04T16:21:37.225Z,100591
2017-06-04T16:24:05.465Z,100590
2017-06-04T16:26:34.430Z,100602
2017-06-04T16:29:03.016Z,100598
2017-06-04T16:31:31.205Z,100606
2017-06-04T16:34:00.194Z,100595
2017-06-04T16:36:28.387Z,100594
2017-06-04T16:38:56.634Z,100599
2017-06-04T16:41:25.241Z,100602
2017-06-04T16:43:53.423Z,100605
2017-06-04T16:46:21.858Z,100604
2017-06-04T16:48:50.088Z,100599
2017-06-04T16:51:18.307Z,100601
2017-06-04T16:53:46.899Z,100598
2017-06-04T16:56:15.145Z,100603
2017-06-04T16:58:43.375Z,100598
2017-06-04T17:01:11.606Z,100592
2017-06-04T17:03:39.818Z,100587
2017-06-04T17:06:08.356Z,100574
2017-06-04T17:08:36.613Z,100590
2017-06-04T17:11:04.858Z,100591
2017-06-04T17:13:33.075Z,100603
2017-06-04T17:16:01.282Z,100607
2017-06-04T17:18:29.843Z,100596
2017-06-04T17:20:58.017Z,100605
2017-06-04T17:23:27.013Z,100608
2017-06-04T17:25:55.271Z,100605
2017-06-04T17:28:23.523Z,100610
2017-06-04T17:30:52.139Z,100616
2017-06-04T17:33:20.331Z,100619
2017-06-04T17:35:48.514Z,100622
2017-06-04T17:38:16.837Z,100630
2017-06-04T17:40:45.063Z,100624
2017-06-04T17:43:14.430Z,100616
2017-06-04T17:45:42.651Z,100625
2017-06-04T17:48:11.626Z,100630
2017-06-04T17:50:39.890Z,100627
2017-06-04T17:53:08.093Z,100626
2017-06-04T17:55:36.650Z,100634
2017-06-04T17:58:05.662Z,100633
2017-06-04T18:00:34.627Z,100631
2017-06-04T18:03:02.831Z,100643
2017-06-04T18:05:31.815Z,100642
2017-06-04T18:08:01.140Z,100639
2017-06-04T18:10:29.320Z,100651
2017-06-04T18:12:57.521Z,100656
2017-06-04T18:15:25.732Z,100647
2017-06-04T18:17:54.698Z,100654
2017-06-04T18:20:23.288Z,100661
2017-06-04T18:22:51.473Z,100666
2017-06-04T18:25:19.668Z,100669
2017-06-04T18:27:47.888Z,100661
2017-06-04T18:30:16.102Z,100664
2017-06-04T18:32:44.777Z,100679
2017-06-04T18:35:12.950Z,100681
2017-06-04T18:37:41.142Z,100687
2017-06-04T18:40:10.156Z,100683
2017-06-04T18:42:38.340Z,100688
2017-06-04T18:45:06.571Z,100681
2017-06-04T18:47:35.596Z,100686
2017-06-04T18:50:03.803Z,100689
2017-06-04T18:52:32.395Z,100688
2017-06-04T18:55:00.631Z,100693
2017-06-04T18:57:28.831Z,100693
2017-06-04T18:59:57.048Z,100694
2017-06-04T19:02:26.020Z,100706
2017-06-04T19:04:54.594Z,100696
2017-06-04T19:07:22.848Z,100702
2017-06-04T19:09:51.043Z,100700
2017-06-04T19:12:19.275Z,100705
2017-06-04T19:14:47.520Z,100703
2017-06-04T19:17:16.908Z,100716
2017-06-04T19:19:45.121Z,100711
2017-06-04T19:22:13.340Z,100708
2017-06-04T19:24:41.560Z,100703
2017-06-04T19:27:09.767Z,100705
2017-06-04T19:29:38.410Z,100704
2017-06-04T19:32:06.629Z,100719
2017-06-04T19:34:34.835Z,100729
2017-06-04T19:37:03.052Z,100721
2017-06-04T19:39:31.242Z,100730
2017-06-04T19:41:59.829Z,100739
2017-06-04T19:44:28.057Z,100746
2017-06-04T19:46:56.263Z,100740
2017-06-04T19:49:24.487Z,100736
2017-06-04T19:51:52.714Z,100738
2017-06-04T19:54:21.286Z,100739
2017-06-04T19:56:49.534Z,100742
2017-06-04T19:59:18.019Z,100746
2017-06-04T20:01:46.241Z,100751
2017-06-04T20:04:14.474Z,100757
2017-06-04T20:06:43.046Z,100755
2017-06-04T20:09:11.315Z,100758
2017-06-04T20:11:40.376Z,100760
2017-06-04T20:14:08.662Z,100759
2017-06-04T20:16:36.863Z,100758
2017-06-04T20:19:06.375Z,100758
2017-06-04T20:21:34.571Z,100757
2017-06-04T20:24:02.876Z,100752
2017-06-04T20:26:31.168Z,100754
2017-06-04T20:28:59.380Z,100757
2017-06-04T20:31:28.006Z,100760
2017-06-04T20:33:56.204Z,100751
2017-06-04T20:36:24.388Z,100763
2017-06-04T20:38:52.589Z,100761
2017-06-04T20:41:20.805Z,100771
2017-06-04T20:43:49.380Z,100765
2017-06-04T20:46:17.585Z,100770
2017-06-04T20:48:46.615Z,100763
2017-06-04T20:51:14.890Z,100769
2017-06-04T20:53:43.139Z,100774
2017-06-04T20:56:11.814Z,100770
2017-06-04T20:58:40.844Z,100778
2017-06-04T21:01:09.261Z,100780
2017-06-04T21:03:37.490Z,100771
2017-06-04T21:06:05.789Z,100770
2017-06-04T21:08:34.389Z,100766
2017-06-04T21:11:02.626Z,100771
2017-06-04T21:13:30.839Z,100766
2017-06-04T21:15:59.139Z,100769
2017-06-04T21:18:27.357Z,100766
2017-06-04T21:20:55.959Z,100767
2017-06-04T21:23:24.249Z,100761
2017-06-04T21:25:52.473Z,100771
2017-06-04T21:28:20.698Z,100762
2017-06-04T21:30:48.909Z,100766
2017-06-04T21:33:18.308Z,100758
2017-06-04T21:35:46.542Z,100769
2017-06-04T21:38:14.751Z,100765
2017-06-04T21:40:43.035Z,100761
2017-06-04T21:43:11.239Z,100761
2017-06-04T21:45:39.784Z,100765
2017-06-04T21:48:08.736Z,100764
2017-06-04T21:50:36.981Z,100768
2017-06-04T21:53:05.727Z,100771
2017-06-04T21:55:34.682Z,100761
2017-06-04T21:58:02.880Z,100761
2017-06-04T22:00:31.093Z,100756
2017-06-04T22:02:59.313Z,100763
2017-06-04T22:05:28.017Z,100773
2017-06-04T22:07:56.218Z,100768
2017-06-04T22:10:24.430Z,100772
2017-06-04T22:12:52.628Z,100774
2017-06-04T22:15:20.798Z,100773
2017-06-04T22:17:49.325Z,100774
2017-06-04T22:20:17.498Z,100772
2017-06-04T22:22:45.673Z,100772
2017-06-04T22:25:13.869Z,100773
2017-06-04T22:27:42.075Z,100772
2017-06-04T22:30:10.678Z,100777
2017-06-04T22:32:38.871Z,100786
2017-06-04T22:35:07.094Z,100776
2017-06-04T22:37:35.309Z,100779
2017-06-04T22:40:04.285Z,100772
2017-06-04T22:42:33.644Z,100778
2017-06-04T22:45:01.827Z,100766
2017-06-04T22:47:30.060Z,100762
2017-06-04T22:49:58.282Z,100766
2017-06-04T22:52:26.497Z,100763
2017-06-04T22:54:56.029Z,100766
2017-06-04T22:57:24.251Z,100761
2017-06-04T22:59:52.483Z,100762
2017-06-04T23:02:20.722Z,100759
2017-06-04T23:04:49.739Z,100757
2017-06-04T23:07:18.380Z,100761
2017-06-04T23:09:46.581Z,100763
2017-06-04T23:12:15.534Z,100770
2017-06-04T23:14:43.769Z,100775
2017-06-04T23:17:12.042Z,100772
2017-06-04T23:19:40.683Z,100771
2017-06-04T23:22:09.689Z,100778
2017-06-04T23:24:38.663Z,100780
2017-06-04T23:27:06.881Z,100781
2017-06-04T23:29:35.080Z,100778
2017-06-04T23:32:03.623Z,100771
2017-06-04T23:34:31.863Z,100791
2017-06-04T23:37:00.072Z,100788
2017-06-04T23:39:28.283Z,100790
2017-06-04T23:41:56.482Z,100789
2017-06-04T23:44:25.033Z,100797
2017-06-04T23:46:53.258Z,100799
2017-06-04T23:49:21.452Z,100797
2017-06-04T23:51:49.653Z,100790
2017-06-04T23:54:18.190Z,100792
2017-06-04T23:56:46.804Z,100784
2017-06-04T23:59:15.016Z,100788
